Time;durP1;ratioP1;P1;durP2;ratioP2;P2;SDS_P1;SDS_P2;PMS_P1;PMS_P2;Temp;Humidity;BMP_temperature;BMP_pressure;BME280_temperature;BME280_humidity;BME280_pressure;Samples;Min_cycle;Max_cycle;Signal;HPM_P1;HPM_P2
2022/01/03 00:01:46;;;;;;;1.55;0.98;;;;;;;11.71;100.00;99710.81;4911753;29;20052;-69
2022/01/03 00:04:16;;;;;;;1.77;1.17;;;;;;;11.62;100.00;99713.09;4906839;29;20036;-68
2022/01/03 00:06:44;;;;;;;2.22;1.88;;;;;;;11.69;100.00;99709.69;4907271;29;20037;-68
2022/01/03 00:09:10;;;;;;;2.67;1.00;;;;;;;11.60;100.00;99696.53;4899365;29;20123;-69
2022/01/03 00:11:36;;;;;;;4.45;1.08;;;;;;;11.55;100.00;99696.94;4912221;29;20131;-70
2022/01/03 00:14:02;;;;;;;0.73;0.55;;;;;;;11.53;100.00;99698.47;4908900;29;20028;-69
2022/01/03 00:16:30;;;;;;;3.67;1.00;;;;;;;11.48;100.00;99696.91;4908479;29;20032;-68
2022/01/03 00:18:55;;;;;;;3.88;1.05;;;;;;;11.45;100.00;99694.22;4904010;29;20032;-68
2022/01/03 00:21:26;;;;;;;4.65;1.20;;;;;;;11.50;100.00;99701.91;4905493;29;20050;-68
2022/01/03 00:23:56;;;;;;;;;;;;;;;11.43;100.00;99701.91;4911918;29;20056;-68
2022/01/03 00:26:26;;;;;;;2.40;1.50;;;;;;;11.48;100.00;99691.50;4908033;29;19919;-68
2022/01/03 00:28:57;;;;;;;3.25;1.33;;;;;;;11.32;100.00;99693.03;4911848;29;20051;-68
2022/01/03 00:31:38;;;;;;;2.97;1.08;;;;;;;11.33;100.00;99691.88;4915253;29;20042;-68
2022/01/03 00:34:06;;;;;;;3.25;1.20;;;;;;;11.21;100.00;99676.84;4915287;29;20060;-68
2022/01/03 00:36:32;;;;;;;3.28;1.10;;;;;;;11.26;100.00;99673.78;4912486;29;20048;-68
2022/01/03 00:39:04;;;;;;;4.22;1.20;;;;;;;11.35;100.00;99678.78;4911262;29;20048;-68
2022/01/03 00:41:30;;;;;;;5.50;1.20;;;;;;;11.33;100.00;99676.50;4909829;29;20052;-67
2022/01/03 00:43:56;;;;;;;4.10;1.10;;;;;;;11.37;100.00;99673.78;4912026;29;20043;-68
2022/01/03 00:46:22;;;;;;;5.90;1.48;;;;;;;11.33;100.00;99670.31;4909349;29;20110;-67
2022/01/03 00:48:48;;;;;;;2.05;1.17;;;;;;;11.30;100.00;99663.00;4904432;29;20032;-67
2022/01/03 00:51:19;;;;;;;2.15;1.27;;;;;;;11.33;100.00;99659.53;4912058;29;20066;-68
2022/01/03 00:53:46;;;;;;;1.20;1.10;;;;;;;11.42;100.00;99668.03;4908532;29;20035;-68
2022/01/03 00:56:14;;;;;;;2.58;1.25;;;;;;;11.43;100.00;99658.78;4912912;29;20217;-68
2022/01/03 00:58:56;;;;;;;2.00;1.30;;;;;;;11.44;100.00;99658.38;4907519;29;20035;-69
2022/01/03 01:01:24;;;;;;;5.90;2.20;;;;;;;11.33;100.00;99654.16;4909641;29;20406;-67
2022/01/03 01:03:54;;;;;;;1.70;0.93;;;;;;;11.25;100.00;99661.47;4909471;29;20355;-69
2022/01/03 01:06:21;;;;;;;8.63;1.10;;;;;;;11.34;100.00;99655.69;4908531;29;20280;-68
2022/01/03 01:08:54;;;;;;;3.45;0.93;;;;;;;11.39;100.00;99652.63;4922143;29;20665;-67
2022/01/03 01:11:26;;;;;;;4.22;1.25;;;;;;;11.28;100.00;99649.16;4916078;29;20040;-68
2022/01/03 01:13:53;;;;;;;0.90;0.80;;;;;;;11.30;100.00;99644.94;4913321;29;20106;-68
2022/01/03 01:16:19;;;;;;;5.55;0.82;;;;;;;11.23;100.00;99644.91;4912412;29;20049;-68
2022/01/03 01:18:48;;;;;;;1.08;0.80;;;;;;;11.36;100.00;99640.66;4908551;29;20127;-68
2022/01/03 01:21:14;;;;;;;1.25;0.80;;;;;;;11.27;100.00;99637.59;4918310;29;20123;-68
2022/01/03 01:23:42;;;;;;;2.08;1.10;;;;;;;11.06;100.00;99631.41;4920301;29;20127;-67
2022/01/03 01:28:52;;;;;;;2.05;0.77;;;;;;;10.94;100.00;99645.25;4915727;29;20057;-67
2022/01/03 01:31:23;;;;;;;1.75;0.60;;;;;;;10.94;100.00;99632.53;4910369;29;20445;-68
2022/01/03 01:33:55;;;;;;;0.55;0.32;;;;;;;10.68;100.00;99636.31;4915758;29;20039;-68
2022/01/03 01:36:27;;;;;;;0.20;0.20;;;;;;;10.91;100.00;99646.78;4914183;29;20369;-67
2022/01/03 01:38:59;;;;;;;2.38;0.30;;;;;;;11.03;100.00;99651.81;4918165;29;20127;-67
2022/01/03 01:41:27;;;;;;;1.38;0.40;;;;;;;10.93;100.00;99643.69;4929360;29;20036;-67
2022/01/03 01:43:58;;;;;;;0.20;0.20;;;;;;;10.77;100.00;99642.13;4914134;29;20043;-67
2022/01/03 01:46:24;;;;;;;0.20;0.20;;;;;;;10.74;100.00;99653.63;4911147;29;20104;-67
2022/01/03 01:48:56;;;;;;;0.17;0.17;;;;;;;10.86;100.00;99672.16;4908673;29;20028;-68
2022/01/03 01:51:25;;;;;;;0.73;0.32;;;;;;;10.66;100.00;99664.78;4911384;29;20035;-67
2022/01/03 01:53:55;;;;;;;0.20;0.20;;;;;;;10.97;100.00;99676.81;4920975;29;20407;-67
2022/01/03 01:57:01;;;;;;;0.35;0.32;;;;;;;11.07;100.00;99682.19;4914128;29;20099;-67
2022/01/03 01:59:53;;;;;;;0.30;0.30;;;;;;;10.99;100.00;99685.28;4901645;29;20047;-68
2022/01/03 02:02:30;;;;;;;0.47;0.32;;;;;;;10.80;100.00;99702.53;4915050;29;20048;-68
2022/01/03 02:04:59;;;;;;;0.40;0.40;;;;;;;11.01;100.00;99704.53;4924297;29;20031;-67
2022/01/03 02:07:48;;;;;;;0.30;0.30;;;;;;;10.97;100.00;99709.91;4918675;29;20040;-67
2022/01/03 02:10:15;;;;;;;0.98;0.60;;;;;;;10.93;100.00;99721.81;4894576;29;20785;-67
2022/01/03 02:12:46;;;;;;;0.45;0.38;;;;;;;10.75;100.00;99727.91;4919944;29;20088;-67
2022/01/03 02:15:15;;;;;;;0.75;0.52;;;;;;;10.95;100.00;99720.28;4910855;29;20036;-70
2022/01/03 02:17:46;;;;;;;0.70;0.50;;;;;;;11.00;100.00;99735.28;4902842;29;20036;-70
2022/01/03 02:20:13;;;;;;;1.23;0.35;;;;;;;10.93;100.00;99748.75;4895536;29;20062;-70
2022/01/03 02:22:40;;;;;;;1.33;0.47;;;;;;;10.87;100.00;99749.13;4912338;29;20039;-67
2022/01/03 02:25:12;;;;;;;0.30;0.30;;;;;;;10.89;100.00;99752.22;4918581;29;20043;-67
2022/01/03 02:27:38;;;;;;;0.30;0.30;;;;;;;10.76;100.00;99774.47;4907294;29;20531;-68
2022/01/03 02:30:09;;;;;;;0.30;0.30;;;;;;;10.82;100.00;99784.47;4922852;29;20036;-67
2022/01/03 02:32:34;;;;;;;0.65;0.57;;;;;;;10.76;100.00;99777.91;4912276;29;20619;-69
2022/01/03 02:35:00;;;;;;;0.40;0.40;;;;;;;10.77;100.00;99802.91;4913697;29;20139;-68
2022/01/03 02:37:28;;;;;;;0.50;0.50;;;;;;;10.60;100.00;99799.00;4913709;29;20039;-69
2022/01/03 02:39:54;;;;;;;0.30;0.30;;;;;;;10.58;100.00;99812.06;4913525;29;20039;-68
2022/01/03 02:42:23;;;;;;;0.38;0.38;;;;;;;10.46;100.00;99819.66;4916633;29;20390;-68
2022/01/03 02:45:02;;;;;;;1.33;0.77;;;;;;;10.42;100.00;99813.47;4930130;29;20044;-68
2022/01/03 02:47:28;;;;;;;0.20;0.20;;;;;;;10.48;100.00;99820.81;4919121;29;20138;-68
2022/01/03 02:49:53;;;;;;;0.20;0.20;;;;;;;10.49;100.00;99825.06;4910659;29;20446;-69
2022/01/03 02:52:19;;;;;;;0.82;0.30;;;;;;;10.38;100.00;99831.50;4912670;29;20036;-68
2022/01/03 02:54:46;;;;;;;0.55;0.40;;;;;;;10.30;100.00;99821.84;4913592;29;20051;-68
2022/01/03 02:57:12;;;;;;;0.70;0.43;;;;;;;10.46;100.00;99819.66;4912555;29;20043;-68
2022/01/03 02:59:37;;;;;;;5.43;0.40;;;;;;;10.42;100.00;99825.00;4912463;29;20032;-68
2022/01/03 03:02:04;;;;;;;0.73;0.30;;;;;;;10.39;100.00;99841.13;4912561;29;20050;-68
2022/01/03 03:04:30;;;;;;;5.20;0.40;;;;;;;10.35;100.00;99838.41;4918417;29;20084;-68
2022/01/03 03:06:56;;;;;;;2.50;0.28;;;;;;;10.16;100.00;99833.28;4920295;29;20114;-68
2022/01/03 03:09:21;;;;;;;1.25;0.47;;;;;;;10.27;100.00;99844.88;4912642;29;20099;-68
2022/01/03 03:11:49;;;;;;;0.77;0.40;;;;;;;10.38;100.00;99847.66;4911632;29;20028;-68
2022/01/03 03:14:15;;;;;;;1.13;0.43;;;;;;;10.35;100.00;99841.13;4910162;29;20028;-68
2022/01/03 03:16:42;;;;;;;1.42;0.55;;;;;;;10.43;100.00;99852.72;4913207;29;20042;-68
2022/01/03 03:19:09;;;;;;;1.17;0.52;;;;;;;10.45;100.00;99855.78;4893615;29;20104;-68
2022/01/03 03:21:35;;;;;;;0.50;0.50;;;;;;;10.43;100.00;99848.06;4913943;29;20405;-68
2022/01/03 03:24:00;;;;;;;1.48;0.60;;;;;;;10.36;100.00;99837.25;4933501;29;20039;-68
2022/01/03 03:26:27;;;;;;;1.35;0.50;;;;;;;10.35;100.00;99851.88;4918547;29;20024;-68
2022/01/03 03:28:52;;;;;;;0.40;0.40;;;;;;;10.46;100.00;99847.34;4916413;29;20094;-68
2022/01/03 03:31:18;;;;;;;1.23;0.77;;;;;;;10.39;100.00;99850.00;4912173;29;20036;-68
2022/01/03 03:33:43;;;;;;;0.55;0.55;;;;;;;10.33;100.00;99840.72;4967239;23;20068;-73
2022/01/03 03:36:09;;;;;;;1.35;0.43;;;;;;;10.44;100.00;99844.25;4969599;28;20041;-73
2022/01/03 03:38:36;;;;;;;1.17;0.43;;;;;;;10.21;100.00;99851.75;4970357;28;20026;-73
2022/01/03 03:41:05;;;;;;;3.75;0.60;;;;;;;10.24;100.00;99850.25;4969605;28;20126;-73
2022/01/03 03:43:36;;;;;;;0.93;0.65;;;;;;;10.04;100.00;99858.47;4969132;28;20030;-73
2022/01/03 03:46:07;;;;;;;0.85;0.60;;;;;;;10.07;100.00;99859.66;4950774;28;20058;-73
2022/01/03 03:48:34;;;;;;;3.90;0.75;;;;;;;9.94;100.00;99853.78;4952142;28;20131;-73
2022/01/03 03:51:00;;;;;;;1.35;0.70;;;;;;;10.11;100.00;99857.03;4959487;28;20047;-73
2022/01/03 03:53:26;;;;;;;2.53;0.60;;;;;;;10.21;100.00;99865.22;4960829;28;20487;-73
2022/01/03 03:55:52;;;;;;;1.58;0.90;;;;;;;10.28;100.00;99851.06;4968457;28;20035;-73
2022/01/03 03:58:18;;;;;;;0.60;0.60;;;;;;;10.10;100.00;99864.34;4954130;28;20058;-73
2022/01/03 04:00:44;;;;;;;1.45;1.08;;;;;;;10.27;100.00;99871.03;4978101;28;20042;-73
2022/01/03 04:03:10;;;;;;;0.63;0.60;;;;;;;10.17;100.00;99861.72;4951202;28;20031;-73
2022/01/03 04:05:40;;;;;;;3.50;0.80;;;;;;;10.26;100.00;99859.47;4969128;28;20407;-73
2022/01/03 04:08:05;;;;;;;0.85;0.57;;;;;;;10.26;100.00;99853.34;4953125;28;20044;-73
2022/01/03 04:10:32;;;;;;;0.68;0.65;;;;;;;10.20;100.00;99855.56;4951143;28;20043;-73
2022/01/03 04:12:58;;;;;;;0.90;0.73;;;;;;;10.29;100.00;99866.81;4951928;28;20030;-73
2022/01/03 04:15:24;;;;;;;1.45;0.82;;;;;;;10.16;100.00;99854.81;4950803;28;20122;-73
2022/01/03 04:17:52;;;;;;;2.05;0.68;;;;;;;10.29;100.00;99860.66;4955722;28;20502;-73
2022/01/03 04:20:19;;;;;;;0.82;0.70;;;;;;;10.09;100.00;99864.66;4969165;28;20479;-73
2022/01/03 04:22:45;;;;;;;1.45;0.75;;;;;;;10.21;100.00;99851.75;4968875;28;20046;-73
2022/01/03 04:25:12;;;;;;;3.72;0.68;;;;;;;10.25;100.00;99855.25;4960163;28;20412;-73
2022/01/03 04:27:38;;;;;;;1.80;1.17;;;;;;;10.14;100.00;99859.78;4967111;28;20429;-73
2022/01/03 04:30:05;;;;;;;1.17;0.47;;;;;;;10.28;100.00;99862.56;4967987;28;20543;-73
2022/01/03 04:32:30;;;;;;;1.75;0.90;;;;;;;10.31;100.00;99856.47;4967289;28;20038;-73
2022/01/03 04:34:56;;;;;;;0.85;0.75;;;;;;;10.29;100.00;99852.59;4950107;28;20511;-73
2022/01/03 04:37:22;;;;;;;1.80;0.70;;;;;;;10.24;100.00;99866.38;4980548;28;20038;-73
2022/01/03 04:39:47;;;;;;;0.55;0.55;;;;;;;10.25;100.00;99862.53;4967745;28;20023;-73
2022/01/03 04:42:13;;;;;;;2.60;0.90;;;;;;;10.44;100.00;99865.78;4942647;28;20131;-73
2022/01/03 04:44:39;;;;;;;3.00;0.45;;;;;;;10.27;100.00;99866.41;4956408;28;20403;-73
2022/01/03 04:47:05;;;;;;;5.47;0.60;;;;;;;10.44;100.00;99860.41;4964635;28;20099;-73
2022/01/03 04:49:31;;;;;;;0.50;0.50;;;;;;;10.26;100.00;99858.72;4963368;28;20026;-73
2022/01/03 04:51:57;;;;;;;0.73;0.40;;;;;;;10.30;100.00;99854.16;4987907;28;20059;-73
2022/01/03 04:54:23;;;;;;;6.65;1.23;;;;;;;10.23;100.00;99865.63;4980992;28;20467;-73
2022/01/03 04:56:48;;;;;;;5.00;0.60;;;;;;;10.25;100.00;99857.16;4965866;28;20055;-73
2022/01/03 04:59:14;;;;;;;0.85;0.80;;;;;;;10.31;100.00;99861.06;4953966;28;20460;-73
2022/01/03 05:01:40;;;;;;;0.85;0.70;;;;;;;10.39;100.00;99859.97;4985342;28;20247;-73
2022/01/03 05:04:06;;;;;;;1.33;0.77;;;;;;;10.32;100.00;99852.59;4959892;28;20576;-73
2022/01/03 05:06:31;;;;;;;0.73;0.45;;;;;;;10.39;100.00;99857.28;4969937;28;20043;-73
2022/01/03 05:08:57;;;;;;;1.92;0.65;;;;;;;10.34;100.00;99861.09;4943364;28;20038;-73
2022/01/03 05:11:23;;;;;;;5.95;1.00;;;;;;;10.30;100.00;99851.44;4970828;28;20046;-73
2022/01/03 05:13:49;;;;;;;2.05;0.75;;;;;;;10.42;100.00;99851.13;4956764;28;20178;-73
2022/01/03 05:16:14;;;;;;;0.98;0.95;;;;;;;10.55;100.00;99844.34;4957119;28;20026;-73
2022/01/03 05:18:40;;;;;;;1.35;0.80;;;;;;;10.33;100.00;99854.16;4944995;28;20551;-73
2022/01/03 05:21:05;;;;;;;0.80;0.50;;;;;;;10.26;100.00;99845.28;4985204;28;20039;-73
2022/01/03 05:23:33;;;;;;;0.90;0.80;;;;;;;10.27;100.00;99847.59;4962682;28;20047;-73
2022/01/03 05:26:00;;;;;;;1.65;0.60;;;;;;;10.30;100.00;99854.16;4968820;28;20143;-73
2022/01/03 05:28:27;;;;;;;5.10;0.52;;;;;;;10.20;100.00;99852.13;4963781;28;20134;-73
2022/01/03 05:30:52;;;;;;;3.08;0.85;;;;;;;10.27;100.00;99844.88;4973000;28;20578;-73
2022/01/03 05:33:19;;;;;;;3.08;1.00;;;;;;;10.32;100.00;99835.69;4967133;28;20058;-73
2022/01/03 05:35:45;;;;;;;0.85;0.77;;;;;;;10.43;100.00;99842.69;4972981;28;20031;-73
2022/01/03 05:38:10;;;;;;;5.07;0.77;;;;;;;10.29;100.00;99852.59;4965419;28;20089;-73
2022/01/03 05:40:37;;;;;;;3.47;0.90;;;;;;;10.37;100.00;99849.59;4954050;28;20067;-73
2022/01/03 05:43:02;;;;;;;0.98;0.68;;;;;;;10.45;100.00;99845.78;4966524;28;20087;-73
2022/01/03 05:45:28;;;;;;;2.75;1.20;;;;;;;10.54;100.00;99848.94;4969692;28;20018;-73
2022/01/03 05:47:55;;;;;;;2.88;0.77;;;;;;;10.51;100.00;99843.53;4981295;28;20035;-73
2022/01/03 05:50:21;;;;;;;3.38;0.80;;;;;;;10.40;100.00;99856.13;4984722;28;20121;-72
2022/01/03 05:52:47;;;;;;;2.97;1.25;;;;;;;10.26;100.00;99856.03;4971246;28;20034;-73
2022/01/03 05:55:13;;;;;;;1.00;0.95;;;;;;;10.22;100.00;99847.91;4971346;28;20045;-72
2022/01/03 05:57:41;;;;;;;1.65;0.60;;;;;;;10.23;100.00;99854.06;4959643;28;20057;-72
2022/01/03 06:00:13;;;;;;;7.70;1.00;;;;;;;10.24;100.00;99845.63;4963993;28;20023;-72
2022/01/03 06:02:42;;;;;;;6.32;0.90;;;;;;;10.17;100.00;99850.94;4977250;28;20418;-73
2022/01/03 06:05:20;;;;;;;1.10;0.70;;;;;;;10.16;100.00;99844.03;4954208;28;20105;-72
2022/01/03 06:07:45;;;;;;;1.95;1.00;;;;;;;10.11;100.00;99851.66;4956375;28;20047;-72
2022/01/03 06:10:17;;;;;;;2.83;0.70;;;;;;;10.20;100.00;99862.91;4969386;28;20030;-72
2022/01/03 06:12:46;;;;;;;4.00;0.60;;;;;;;10.31;100.00;99858.38;4970704;28;20089;-73
2022/01/03 06:15:15;;;;;;;4.28;1.25;;;;;;;10.34;100.00;99858.38;4971793;28;20062;-72
2022/01/03 06:17:43;;;;;;;3.45;0.77;;;;;;;10.36;100.00;99874.94;4966694;28;20035;-72
2022/01/03 06:20:10;;;;;;;1.45;0.68;;;;;;;10.40;100.00;99864.97;4968261;28;20034;-72
2022/01/03 06:22:38;;;;;;;0.82;0.50;;;;;;;10.44;100.00;99873.06;4970668;28;20034;-72
2022/01/03 06:25:04;;;;;;;2.67;0.73;;;;;;;10.50;100.00;99872.38;4965807;28;20035;-72
2022/01/03 06:27:29;;;;;;;2.45;0.70;;;;;;;10.42;100.00;99880.75;4965576;28;20647;-73
2022/01/03 06:29:55;;;;;;;3.05;0.70;;;;;;;10.26;100.00;99875.63;4971878;28;20478;-72
2022/01/03 06:32:20;;;;;;;2.10;0.63;;;;;;;10.37;100.00;99886.50;4972145;28;20039;-72
2022/01/03 06:34:45;;;;;;;4.32;1.15;;;;;;;10.57;100.00;99880.50;4972165;28;20062;-72
2022/01/03 06:37:11;;;;;;;1.15;0.60;;;;;;;10.33;100.00;99877.59;4968002;28;20046;-72
2022/01/03 06:40:12;;;;;;;2.25;0.85;;;;;;;10.38;100.00;99878.03;4960158;28;20043;-72
2022/01/03 06:42:37;;;;;;;5.30;0.75;;;;;;;10.28;100.00;99884.09;4966873;28;20031;-73
2022/01/03 06:45:04;;;;;;;2.63;0.70;;;;;;;10.45;100.00;99882.72;4970384;28;20027;-73
2022/01/03 06:47:29;;;;;;;4.78;0.95;;;;;;;10.23;100.00;99880.97;4970953;28;20030;-72
2022/01/03 06:49:55;;;;;;;1.08;0.98;;;;;;;10.35;100.00;99873.41;4955122;28;20395;-73
2022/01/03 06:52:22;;;;;;;3.15;0.88;;;;;;;10.43;100.00;99872.28;4967977;28;20030;-73
2022/01/03 06:54:47;;;;;;;6.28;0.82;;;;;;;10.49;100.00;99876.19;4969634;28;20121;-73
2022/01/03 06:57:16;;;;;;;3.80;0.60;;;;;;;10.29;100.00;99882.97;4960642;28;20030;-72
2022/01/03 06:59:43;;;;;;;2.97;0.95;;;;;;;10.22;100.00;99872.13;4969321;28;20077;-73
2022/01/03 07:02:09;;;;;;;4.63;1.10;;;;;;;10.29;100.00;99864.13;4970142;28;20050;-73
2022/01/03 07:04:35;;;;;;;5.07;0.90;;;;;;;10.33;100.00;99870.31;4969625;28;20035;-72
2022/01/03 07:07:00;;;;;;;4.47;1.05;;;;;;;10.18;100.00;99882.06;4971296;28;20038;-73
2022/01/03 07:09:25;;;;;;;4.70;1.08;;;;;;;10.16;100.00;99878.22;4978965;28;20043;-73
2022/01/03 07:11:51;;;;;;;13.18;1.17;;;;;;;10.29;100.00;99884.88;4989524;28;20046;-72
2022/01/03 07:19:49;;;;;;;2.13;1.15;;;;;;;10.44;100.00;99891.91;4976626;28;20637;-73
2022/01/03 07:22:14;;;;;;;4.35;0.40;;;;;;;10.32;100.00;99890.28;4974409;28;20031;-73
2022/01/03 07:24:40;;;;;;;6.97;1.10;;;;;;;10.12;100.00;99886.28;4970301;28;20113;-73
2022/01/03 07:27:08;;;;;;;7.75;0.70;;;;;;;10.24;100.00;99890.59;4971294;28;20161;-73
2022/01/03 07:29:34;;;;;;;0.65;0.55;;;;;;;10.07;100.00;99894.63;4970904;28;20038;-73
2022/01/03 07:32:00;;;;;;;8.40;0.90;;;;;;;9.99;100.00;99903.75;4964266;28;20037;-73
2022/01/03 07:34:26;;;;;;;1.67;0.90;;;;;;;10.06;100.00;99889.63;4978976;28;20034;-73
2022/01/03 07:36:52;;;;;;;4.13;0.68;;;;;;;10.09;100.00;99895.03;4978342;28;20078;-73
2022/01/03 07:39:17;;;;;;;0.82;0.55;;;;;;;10.15;100.00;99898.19;4973078;28;20041;-73
2022/01/03 07:41:45;;;;;;;2.28;0.88;;;;;;;10.21;100.00;99905.56;4981286;28;20131;-73
2022/01/03 07:44:11;;;;;;;4.35;0.70;;;;;;;10.18;100.00;99906.28;4972191;28;20133;-73
2022/01/03 07:46:37;;;;;;;10.15;1.52;;;;;;;10.18;100.00;99917.06;4970427;28;20031;-73
2022/01/03 07:49:03;;;;;;;3.97;1.27;;;;;;;10.27;100.00;99898.72;4969069;28;20039;-73
2022/01/03 07:51:30;;;;;;;1.75;0.77;;;;;;;10.18;100.00;99892.84;4965996;28;20491;-73
2022/01/03 07:53:56;;;;;;;4.20;1.63;;;;;;;10.10;100.00;99899.31;4975976;28;20034;-73
2022/01/03 07:56:22;;;;;;;4.40;0.95;;;;;;;10.16;100.00;99905.13;4985533;28;20069;-72
2022/01/03 07:58:47;;;;;;;2.45;0.68;;;;;;;10.30;100.00;99899.88;4970641;28;20030;-73
2022/01/03 08:01:13;;;;;;;7.55;0.73;;;;;;;10.16;100.00;99903.22;4969476;28;20039;-73
2022/01/03 08:03:41;;;;;;;3.28;1.05;;;;;;;10.29;100.00;99901.81;4967628;28;20042;-73
2022/01/03 08:06:15;;;;;;;6.95;1.00;;;;;;;10.14;100.00;99908.19;4977769;28;20174;-73
2022/01/03 08:08:40;;;;;;;2.40;0.93;;;;;;;10.11;100.00;99911.63;4967182;28;20039;-73
2022/01/03 08:11:06;;;;;;;6.70;1.48;;;;;;;10.35;100.00;99911.09;4966858;28;20042;-72
2022/01/03 08:13:34;;;;;;;3.05;1.05;;;;;;;10.42;100.00;99911.13;4965337;28;20035;-72
2022/01/03 08:16:00;;;;;;;3.83;1.23;;;;;;;10.23;100.00;99915.94;4969886;28;20550;-73
2022/01/03 08:18:25;;;;;;;4.50;1.23;;;;;;;10.22;100.00;99915.16;4971533;28;20450;-73
2022/01/03 08:20:53;;;;;;;1.95;1.02;;;;;;;10.16;100.00;99923.97;4967213;28;20422;-73
2022/01/03 08:23:21;;;;;;;6.75;1.08;;;;;;;10.28;100.00;99913.69;4972325;28;20022;-72
2022/01/03 08:25:46;;;;;;;2.63;0.75;;;;;;;10.21;100.00;99918.25;4969658;28;20094;-73
2022/01/03 08:28:12;;;;;;;8.60;0.95;;;;;;;10.25;100.00;99919.81;4967244;28;20118;-72
2022/01/03 08:30:37;;;;;;;2.30;0.82;;;;;;;10.24;100.00;99918.25;4978680;28;20489;-72
2022/01/03 08:33:04;;;;;;;5.55;1.00;;;;;;;10.23;100.00;99914.03;4989701;28;20053;-72
2022/01/03 08:35:30;;;;;;;4.97;0.70;;;;;;;10.32;100.00;99930.66;4970828;28;20071;-72
2022/01/03 08:37:57;;;;;;;6.57;0.75;;;;;;;10.54;100.00;99927.00;4971771;28;20113;-72
2022/01/03 08:40:23;;;;;;;5.18;1.23;;;;;;;10.30;100.00;99910.66;4972960;28;20488;-72
2022/01/03 08:42:48;;;;;;;4.68;1.10;;;;;;;10.21;100.00;99916.31;4971058;28;20037;-73
2022/01/03 08:45:14;;;;;;;11.63;0.90;;;;;;;10.05;100.00;99918.44;4974841;28;20042;-73
2022/01/03 08:47:40;;;;;;;8.27;1.00;;;;;;;10.00;100.00;99922.25;4974248;28;20126;-72
2022/01/03 08:50:07;;;;;;;4.88;0.95;;;;;;;9.98;100.00;99919.16;4972125;28;20550;-73
2022/01/03 08:52:32;;;;;;;3.78;1.65;;;;;;;10.07;100.00;99920.75;4971332;28;20031;-73
2022/01/03 08:54:58;;;;;;;2.15;0.68;;;;;;;10.13;100.00;99914.72;4974004;28;20031;-72
2022/01/03 08:57:24;;;;;;;2.20;0.70;;;;;;;10.25;100.00;99913.66;4977816;28;20046;-73
2022/01/03 08:59:50;;;;;;;1.20;0.88;;;;;;;10.26;100.00;99921.34;4974495;28;20046;-72
2022/01/03 09:02:18;;;;;;;1.73;0.47;;;;;;;10.15;100.00;99920.50;4965555;28;20023;-72
2022/01/03 09:04:45;;;;;;;4.13;0.95;;;;;;;10.24;100.00;99914.81;4975542;28;20066;-72
2022/01/03 09:07:16;;;;;;;11.85;1.40;;;;;;;10.17;100.00;99915.53;4972614;28;20038;-71
2022/01/03 09:09:41;;;;;;;5.55;1.15;;;;;;;10.18;100.00;99921.69;4968985;28;20063;-72
2022/01/03 09:12:07;;;;;;;6.57;0.68;;;;;;;10.14;100.00;99920.88;4972931;28;20073;-72
2022/01/03 09:14:34;;;;;;;2.47;0.73;;;;;;;10.14;100.00;99920.88;4973834;28;20046;-72
2022/01/03 09:17:00;;;;;;;4.53;1.05;;;;;;;10.11;100.00;99922.38;4991164;28;20367;-72
2022/01/03 09:19:26;;;;;;;3.38;0.98;;;;;;;10.23;100.00;99908.66;4981643;28;20501;-73
2022/01/03 09:22:00;;;;;;;2.72;0.80;;;;;;;10.39;100.00;99922.66;4970851;28;20039;-72
2022/01/03 09:24:42;;;;;;;1.23;0.65;;;;;;;10.28;100.00;99915.63;4968815;28;20098;-72
2022/01/03 09:29:54;;;;;;;3.30;1.15;;;;;;;10.25;100.00;99914.44;4966944;28;20031;-72
2022/01/03 09:35:00;;;;;;;5.80;0.85;;;;;;;10.22;100.00;99917.84;4924183;29;20062;-69
2022/01/03 09:37:26;;;;;;;5.93;0.68;;;;;;;10.31;100.00;99921.03;4932153;29;20028;-69
2022/01/03 09:39:52;;;;;;;4.65;1.45;;;;;;;10.33;100.00;99913.38;4931255;29;20577;-69
2022/01/03 09:42:28;;;;;;;6.13;1.23;;;;;;;10.30;100.00;99910.66;4926831;29;20142;-70
2022/01/03 09:44:54;;;;;;;5.18;0.77;;;;;;;10.31;100.00;99912.19;4904467;29;20056;-69
2022/01/03 09:47:21;;;;;;;4.18;0.82;;;;;;;10.50;100.00;99890.44;4903115;29;20598;-69
2022/01/03 09:49:48;;;;;;;3.95;0.77;;;;;;;10.29;100.00;99890.25;4904046;29;20115;-69
2022/01/03 09:52:15;;;;;;;3.15;1.25;;;;;;;10.31;100.00;99898.72;4907023;29;20086;-69
2022/01/03 09:54:42;;;;;;;2.50;0.80;;;;;;;10.36;100.00;99895.69;4904331;29;20039;-70
2022/01/03 09:57:08;;;;;;;3.05;1.17;;;;;;;10.28;100.00;99892.16;4908997;29;20046;-70
2022/01/03 09:59:36;;;;;;;6.70;1.20;;;;;;;10.42;100.00;99903.06;4922780;29;20032;-69
2022/01/03 10:02:04;;;;;;;2.08;0.82;;;;;;;10.38;100.00;99891.50;4906343;29;20032;-69
2022/01/03 10:04:29;;;;;;;5.35;1.08;;;;;;;10.43;100.00;99893.81;4901895;29;20048;-69
2022/01/03 10:06:55;;;;;;;3.15;1.58;;;;;;;10.43;100.00;99901.91;4899093;29;20451;-69
2022/01/03 10:09:22;;;;;;;4.78;0.90;;;;;;;10.59;100.00;99898.97;4900963;29;20033;-69
2022/01/03 10:11:48;;;;;;;6.15;1.60;;;;;;;10.65;100.00;99898.25;4903799;29;20047;-69
2022/01/03 10:14:15;;;;;;;6.03;1.50;;;;;;;10.48;100.00;99896.19;4914189;29;20036;-69
2022/01/03 10:16:42;;;;;;;8.68;2.10;;;;;;;10.42;100.00;99884.22;4917520;29;20047;-69
2022/01/03 10:19:08;;;;;;;4.85;1.25;;;;;;;10.42;100.00;99897.69;4905910;29;20048;-69
2022/01/03 10:21:41;;;;;;;5.10;0.68;;;;;;;10.31;100.00;99888.75;4893334;29;20110;-69
2022/01/03 10:24:08;;;;;;;3.22;0.93;;;;;;;10.38;100.00;99894.19;4904972;29;20043;-69
2022/01/03 10:26:36;;;;;;;8.80;1.02;;;;;;;10.23;100.00;99883.66;4902990;29;20040;-69
2022/01/03 10:29:14;;;;;;;3.25;1.23;;;;;;;10.40;100.00;99881.13;4906661;29;20072;-68
2022/01/03 10:31:41;;;;;;;2.45;0.80;;;;;;;10.47;100.00;99885.81;4912410;29;20043;-69
2022/01/03 10:34:09;;;;;;;2.53;0.60;;;;;;;10.28;100.00;99888.72;4901846;29;20545;-69
2022/01/03 10:36:36;;;;;;;1.95;0.75;;;;;;;10.38;100.00;99885.31;4900331;29;20040;-69
2022/01/03 10:39:23;;;;;;;1.13;0.80;;;;;;;10.43;100.00;99875.00;4910183;29;20021;-69
2022/01/03 10:41:51;;;;;;;3.88;1.45;;;;;;;10.39;100.00;99884.19;4896026;29;20036;-68
2022/01/03 10:44:37;;;;;;;4.65;0.95;;;;;;;10.29;100.00;99876.81;4917512;29;20048;-68
2022/01/03 10:47:05;;;;;;;0.88;0.70;;;;;;;10.18;100.00;99874.00;4903949;29;20060;-69
2022/01/03 10:49:32;;;;;;;5.82;0.90;;;;;;;10.20;100.00;99876.34;4903280;29;20078;-69
2022/01/03 10:52:19;;;;;;;4.90;1.27;;;;;;;10.31;100.00;99877.97;4899837;29;20048;-68
2022/01/03 10:55:06;;;;;;;3.42;0.90;;;;;;;10.17;100.00;99872.47;4902471;29;20103;-69
2022/01/03 10:57:55;;;;;;;6.63;0.82;;;;;;;10.39;100.00;99884.19;4907015;29;20032;-69
2022/01/03 11:00:30;;;;;;;7.60;0.90;;;;;;;10.55;100.00;99874.69;4907428;29;20090;-69
2022/01/03 11:05:46;;;;;;;5.45;0.80;;;;;;;10.63;100.00;99880.91;4903352;29;20128;-69
2022/01/03 11:10:56;;;;;;;0.80;0.50;;;;;;;10.50;100.00;99875.06;4910861;29;20098;-69
2022/01/03 11:13:23;;;;;;;6.05;1.15;;;;;;;10.55;100.00;99872.00;4912157;29;20573;-69
2022/01/03 11:16:00;;;;;;;3.17;0.50;;;;;;;10.58;100.00;99865.91;4906564;29;20050;-69
2022/01/03 11:18:25;;;;;;;4.65;0.88;;;;;;;10.65;100.00;99876.72;4903686;29;20144;-69
2022/01/03 11:21:13;;;;;;;2.13;0.90;;;;;;;10.55;100.00;99863.94;4908511;29;20049;-69
2022/01/03 11:23:41;;;;;;;6.05;1.00;;;;;;;10.48;100.00;99855.03;4911119;29;20044;-68
2022/01/03 11:26:09;;;;;;;3.50;0.90;;;;;;;10.49;100.00;99854.66;4911674;29;20040;-69
2022/01/03 11:28:35;;;;;;;2.65;1.02;;;;;;;10.41;100.00;99847.69;4900375;29;20048;-68
2022/01/03 11:31:02;;;;;;;9.73;1.17;;;;;;;10.71;100.00;99847.50;4909788;29;20094;-69
2022/01/03 11:33:30;;;;;;;5.40;0.93;;;;;;;10.58;100.00;99846.28;4910683;29;20036;-68
2022/01/03 11:35:58;;;;;;;7.55;0.85;;;;;;;10.64;100.00;99842.88;4911993;29;20080;-69
2022/01/03 11:38:28;;;;;;;5.97;0.95;;;;;;;10.47;100.00;99837.34;4911379;29;20043;-69
2022/01/03 11:40:54;;;;;;;3.33;0.75;;;;;;;10.40;100.00;99832.69;4907740;29;20252;-68
2022/01/03 11:43:19;;;;;;;2.38;1.20;;;;;;;10.49;100.00;99827.75;4906162;29;20502;-69
2022/01/03 11:45:45;;;;;;;2.90;0.80;;;;;;;10.56;100.00;99821.66;4905038;29;20062;-68
2022/01/03 11:48:11;;;;;;;3.40;1.85;;;;;;;10.60;100.00;99819.75;4900328;29;20059;-68